Time;durP1;ratioP1;P1;durP2;ratioP2;P2;SDS_P1;SDS_P2;PMS_P1;PMS_P2;Temp;Humidity;BMP_temperature;BMP_pressure;BME280_temperature;BME280_humidity;BME280_pressure;Samples;Min_cycle;Max_cycle;Signal;HPM_P1;HPM_P2
2021/12/12 00:01:16;;;;;;;;;;;;;;;0.49;98.40;96792.38;5000265;28;19928;-79
2021/12/12 00:03:47;;;;;;;;;;;;;;;0.55;97.89;96801.28;5000938;28;19921;-77
2021/12/12 00:06:15;;;;;;;;;;;;;;;0.56;97.76;96801.09;5017622;28;19921;-78
2021/12/12 00:08:43;;;;;;;;;;;;;;;0.50;97.89;96804.34;5017971;28;20375;-78
2021/12/12 00:11:09;;;;;;;;;;;;;;;0.40;98.70;96804.47;5010039;28;19960;-76
2021/12/12 00:13:38;;;;;;;;;;;;;;;0.36;99.45;96817.88;5033036;28;19933;-77
2021/12/12 00:16:07;;;;;;;;;;;;;;;0.39;98.78;96808.03;5019076;28;19922;-78
2021/12/12 00:18:35;;;;;;;;;;;;;;;0.34;99.55;96809.47;5018762;28;19928;-79
2021/12/12 00:21:00;;;;;;;;;;;;;;;0.33;99.55;96811.25;5016592;28;19991;-78
2021/12/12 00:23:27;;;;;;;;;;;;;;;0.26;99.97;96813.63;5031569;23;19922;-81
2021/12/12 00:25:54;;;;;;;;;;;;;;;0.25;100.00;96817.19;5004812;28;19921;-81
2021/12/12 00:28:21;;;;;;;;;;;;;;;0.24;99.81;96810.41;5004158;28;19961;-80
2021/12/12 00:30:47;;;;;;;;;;;;;;;0.23;99.97;96813.16;5001845;28;19975;-79
2021/12/12 00:33:13;;;;;;;;;;;;;;;0.17;100.00;96814.59;4992535;28;19949;-79
2021/12/12 00:35:41;;;;;;;;;;;;;;;0.19;99.95;96823.00;5008024;28;19928;-82
2021/12/12 00:38:12;;;;;;;;;;;;;;;0.13;99.77;96823.63;5005396;28;19988;-79
2021/12/12 00:40:43;;;;;;;;;;;;;;;0.05;100.00;96822.75;5006417;28;19997;-80
2021/12/12 00:43:12;;;;;;;;;;;;;;;0.01;100.00;96830.03;4995056;28;19941;-80
2021/12/12 00:45:39;;;;;;;;;;;;;;;-0.03;100.00;96833.88;4989388;28;19929;-81
2021/12/12 00:48:06;;;;;;;;;;;;;;;-0.07;100.00;96832.56;4987781;28;19921;-81
2021/12/12 00:50:34;;;;;;;;;;;;;;;-0.04;100.00;96840.03;4988113;28;19923;-81
2021/12/12 00:53:00;;;;;;;;;;;;;;;-0.03;100.00;96836.47;5006658;28;19921;-81
2021/12/12 00:55:26;;;;;;;;;;;;;;;-0.05;100.00;96841.00;5011018;28;19997;-78
2021/12/12 00:57:54;;;;;;;;;;;;;;;-0.05;100.00;96841.00;4993314;28;19922;-80
2021/12/12 01:00:21;;;;;;;;;;;;;;;-0.08;100.00;96838.69;5006554;28;19937;-81
2021/12/12 01:02:47;;;;;;;;;;;;;;;-0.06;100.00;96839.34;5005487;28;20045;-81
2021/12/12 01:05:12;;;;;;;;;;;;;;;-0.11;100.00;96837.25;5005050;28;19929;-81
2021/12/12 01:07:40;;;;;;;;;;;;;;;-0.13;100.00;96835.75;5006698;28;19922;-80
2021/12/12 01:10:07;;;;;;;;;;;;;;;-0.13;100.00;96852.09;4987912;28;19921;-81
2021/12/12 01:12:34;;;;;;;;;;;;;;;-0.18;100.00;96859.50;4987669;28;20349;-81
2021/12/12 01:15:04;;;;;;;;;;;;;;;-0.18;100.00;96866.44;5004221;28;19949;-82
2021/12/12 01:17:34;;;;;;;;;;;;;;;-0.24;100.00;96856.72;5006954;28;19921;-80
2021/12/12 01:20:04;;;;;;;;;;;;;;;-0.25;100.00;96866.25;5000130;28;19926;-80
2021/12/12 01:22:32;;;;;;;;;;;;;;;-0.20;100.00;96863.19;4980279;28;19980;-80
2021/12/12 01:24:59;;;;;;;;;;;;;;;-0.12;100.00;96871.81;5005126;28;19922;-80
2021/12/12 01:27:24;;;;;;;;;;;;;;;-0.10;100.00;96880.25;5006048;28;19983;-80
2021/12/12 01:29:50;;;;;;;;;;;;;;;-0.10;100.00;96887.19;5003997;28;19922;-82
2021/12/12 01:32:25;;;;;;;;;;;;;;;-0.10;100.00;96884.59;5004847;28;19930;-80
2021/12/12 01:34:51;;;;;;;;;;;;;;;-0.17;100.00;96894.72;5004136;28;19979;-80
2021/12/12 01:39:54;;;;;;;;;;;;;;;-0.32;100.00;96902.22;5004227;28;19983;-81
2021/12/12 01:42:21;;;;;;;;;;;;;;;-0.21;100.00;96897.78;4990816;28;19926;-81
2021/12/12 01:44:48;;;;;;;;;;;;;;;-0.35;100.00;96896.53;5005037;28;19929;-80
2021/12/12 01:47:16;;;;;;;;;;;;;;;-0.38;100.00;96902.81;5003308;28;19921;-80
2021/12/12 01:49:45;;;;;;;;;;;;;;;-0.39;100.00;96890.03;5002969;28;20378;-80
2021/12/12 01:52:14;;;;;;;;;;;;;;;-0.50;100.00;96904.00;5003139;28;19977;-79
2021/12/12 01:54:45;;;;;;;;;;;;;;;-0.53;100.00;96896.56;4985038;28;19929;-82
2021/12/12 01:57:11;;;;;;;;;;;;;;;-0.56;100.00;96894.28;5003405;28;19998;-81
2021/12/12 01:59:39;;;;;;;;;;;;;;;-0.62;100.00;96889.72;4986072;28;20007;-80
2021/12/12 02:02:08;;;;;;;;;;;;;;;-0.67;100.00;96894.50;5002795;28;19984;-80
2021/12/12 02:04:35;;;;;;;;;;;;;;;-0.64;100.00;96897.63;4986827;28;19930;-80
2021/12/12 02:07:02;;;;;;;;;;;;;;;-0.63;100.00;96898.44;4988744;28;19949;-80
2021/12/12 02:09:28;;;;;;;;;;;;;;;-0.67;100.00;96897.91;5006473;28;19949;-80
2021/12/12 02:11:55;;;;;;;;;;;;;;;-0.63;100.00;96894.06;5005438;28;19926;-80
2021/12/12 02:14:22;;;;;;;;;;;;;;;-0.61;100.00;96904.25;4988087;28;19944;-80
2021/12/12 02:16:49;;;;;;;;;;;;;;;-0.66;100.00;96901.28;4989780;28;19929;-81
2021/12/12 02:19:15;;;;;;;;;;;;;;;-0.68;100.00;96916.13;5006349;28;19933;-80
2021/12/12 02:22:02;;;;;;;;;;;;;;;-0.69;100.00;96925.66;5006614;28;20006;-80
2021/12/12 02:37:59;;;;;;;;;;;;;;;-0.76;100.00;96919.44;5007225;28;19921;-81
2021/12/12 02:40:27;;;;;;;;;;;;;;;-0.77;100.00;96917.81;5007047;28;19926;-81
2021/12/12 02:42:53;;;;;;;;;;;;;;;-0.75;100.00;96915.09;5006139;28;19953;-81
2021/12/12 02:45:22;;;;;;;;;;;;;;;-0.64;100.00;96926.03;5005615;28;19937;-81
2021/12/12 02:47:55;;;;;;;;;;;;;;;-0.60;100.00;96913.63;4987930;28;19928;-80
2021/12/12 02:50:22;;;;;;;;;;;;;;;-0.44;100.00;96920.69;4992738;28;19951;-79
2021/12/12 02:52:51;;;;;;;;;;;;;;;-0.40;100.00;96919.44;5010032;28;19922;-81
2021/12/12 02:55:19;;;;;;;;;;;;;;;-0.40;100.00;96925.41;4988322;28;19921;-81
2021/12/12 02:57:46;;;;;;;;;;;;;;;-0.27;100.00;96928.44;5005042;28;19929;-81
2021/12/12 03:00:14;;;;;;;;;;;;;;;-0.26;100.00;96931.84;5005591;28;19949;-81
2021/12/12 03:02:45;;;;;;;;;;;;;;;-0.30;100.00;96931.31;4997158;28;20060;-79
2021/12/12 03:05:14;;;;;;;;;;;;;;;-0.19;100.00;96932.03;5010684;28;19972;-80
2021/12/12 03:07:42;;;;;;;;;;;;;;;-0.20;99.86;96920.09;4988624;28;19922;-81
2021/12/12 03:10:09;;;;;;;;;;;;;;;-0.23;99.40;96926.34;5006151;28;20219;-82
2021/12/12 03:12:35;;;;;;;;;;;;;;;-0.31;99.29;96929.69;5013563;28;19917;-80
2021/12/12 03:15:05;;;;;;;;;;;;;;;-0.27;99.71;96937.94;4993080;28;19929;-81
2021/12/12 03:17:31;;;;;;;;;;;;;;;-0.06;99.00;96937.63;5011112;28;19983;-79
2021/12/12 03:20:01;;;;;;;;;;;;;;;-0.08;98.86;96939.56;4989424;28;20305;-81
2021/12/12 03:22:27;;;;;;;;;;;;;;;-0.10;98.55;96923.38;5006888;28;19973;-79
2021/12/12 03:24:55;;;;;;;;;;;;;;;-0.03;98.48;96932.97;5005291;28;19976;-79
2021/12/12 03:27:21;;;;;;;;;;;;;;;0.11;97.85;96931.63;4986598;28;19921;-80
2021/12/12 03:29:48;;;;;;;;;;;;;;;-0.01;97.51;96935.41;5008193;28;19928;-80
2021/12/12 03:32:16;;;;;;;;;;;;;;;-0.06;97.74;96937.63;4998100;28;19930;-80
2021/12/12 03:34:44;;;;;;;;;;;;;;;-0.01;96.78;96932.81;5012202;28;19952;-81
2021/12/12 03:37:13;;;;;;;;;;;;;;;0.05;97.44;96942.53;5008019;28;19922;-82
2021/12/12 03:39:43;;;;;;;;;;;;;;;0.04;97.12;96942.69;5009626;28;19921;-79
2021/12/12 03:42:11;;;;;;;;;;;;;;;0.19;96.50;96944.59;5001379;28;19921;-81
2021/12/12 03:44:38;;;;;;;;;;;;;;;0.18;95.99;96939.56;4986652;28;19922;-79
2021/12/12 03:47:05;;;;;;;;;;;;;;;0.18;95.80;96944.75;5004600;28;19949;-81
2021/12/12 03:49:32;;;;;;;;;;;;;;;0.22;95.84;96936.53;5004783;28;20012;-80
2021/12/12 03:51:58;;;;;;;;;;;;;;;0.28;94.75;96942.06;4986833;28;19997;-79
2021/12/12 03:54:23;;;;;;;;;;;;;;;0.17;95.24;96938.75;4986156;28;20270;-80
2021/12/12 03:56:49;;;;;;;;;;;;;;;0.14;94.93;96946.00;4985871;28;19964;-80
2021/12/12 03:59:15;;;;;;;;;;;;;;;0.16;95.55;96947.50;5008264;28;19977;-78
2021/12/12 04:01:43;;;;;;;;;;;;;;;0.11;95.69;96949.72;5010572;28;19966;-78
2021/12/12 04:04:09;;;;;;;;;;;;;;;0.34;94.49;96954.38;4997904;28;19922;-82
2021/12/12 04:06:37;;;;;;;;;;;;;;;0.26;94.53;96950.75;4999350;28;20377;-80
2021/12/12 04:09:04;;;;;;;;;;;;;;;0.20;94.59;96953.97;4983356;28;19922;-80
2021/12/12 04:11:31;;;;;;;;;;;;;;;0.20;94.61;96960.91;5000764;28;19928;-80
2021/12/12 04:13:58;;;;;;;;;;;;;;;0.26;94.69;96958.53;5002481;28;19922;-79
2021/12/12 04:16:24;;;;;;;;;;;;;;;0.26;94.49;96963.69;5004446;28;20001;-79
2021/12/12 04:18:50;;;;;;;;;;;;;;;0.18;94.00;96958.50;4986694;28;19997;-80
2021/12/12 04:21:17;;;;;;;;;;;;;;;0.36;93.41;96965.38;4986842;28;19949;-81
2021/12/12 04:23:47;;;;;;;;;;;;;;;0.33;93.92;96960.53;5004686;28;20010;-80
2021/12/12 04:26:13;;;;;;;;;;;;;;;0.28;93.95;96965.34;5005675;28;19922;-80
2021/12/12 04:28:39;;;;;;;;;;;;;;;0.26;94.10;96962.88;5004765;28;19981;-81
2021/12/12 04:31:07;;;;;;;;;;;;;;;0.42;93.10;96970.75;5005305;28;19937;-80
2021/12/12 04:33:32;;;;;;;;;;;;;;;0.43;92.13;96968.97;5003806;28;19921;-80
2021/12/12 04:35:58;;;;;;;;;;;;;;;0.47;90.54;96970.28;4985110;28;19948;-80
2021/12/12 04:38:24;;;;;;;;;;;;;;;0.60;89.82;96970.69;5003785;28;20398;-82
2021/12/12 04:40:50;;;;;;;;;;;;;;;0.69;88.46;96977.53;5003870;28;19980;-82
2021/12/12 04:43:16;;;;;;;;;;;;;;;0.79;89.61;96973.03;5004400;28;19922;-81
2021/12/12 04:45:50;;;;;;;;;;;;;;;0.76;88.38;96969.97;4985364;28;19921;-80
2021/12/12 04:51:04;;;;;;;;;;;;;;;0.87;88.72;96981.81;5003911;28;19976;-80
2021/12/12 04:53:32;;;;;;;;;;;;;;;0.89;88.58;96974.69;4987362;28;20282;-80
2021/12/12 04:56:03;;;;;;;;;;;;;;;0.85;88.18;96979.38;4997494;28;19917;-80
2021/12/12 04:58:38;;;;;;;;;;;;;;;0.81;88.55;96977.25;4994867;28;19910;-81
2021/12/12 05:01:09;;;;;;;;;;;;;;;0.88;88.47;96975.66;5009015;28;19969;-82
2021/12/12 05:03:40;;;;;;;;;;;;;;;0.81;88.82;96980.66;4986555;28;19926;-81
2021/12/12 05:06:08;;;;;;;;;;;;;;;0.74;87.87;96980.47;4994526;28;19937;-79
2021/12/12 05:08:36;;;;;;;;;;;;;;;0.75;88.36;96979.50;5014924;28;19909;-80
2021/12/12 05:11:06;;;;;;;;;;;;;;;0.96;87.33;96979.09;5013841;28;19937;-81
2021/12/12 05:13:34;;;;;;;;;;;;;;;0.94;86.30;96983.63;5013539;28;19921;-80
2021/12/12 05:16:00;;;;;;;;;;;;;;;0.99;86.57;96988.34;5013409;28;19917;-81
2021/12/12 05:18:29;;;;;;;;;;;;;;;0.90;87.30;96997.03;5013759;28;20025;-81
2021/12/12 05:20:56;;;;;;;;;;;;;;;1.08;86.56;97007.28;4996789;28;19917;-81
2021/12/12 05:23:24;;;;;;;;;;;;;;;0.92;85.97;96995.13;4996711;28;19970;-80
2021/12/12 05:25:56;;;;;;;;;;;;;;;0.89;86.94;96990.25;5014175;28;19920;-79
2021/12/12 05:28:26;;;;;;;;;;;;;;;0.92;86.25;96998.53;4997366;28;19909;-79
2021/12/12 05:30:51;;;;;;;;;;;;;;;1.07;86.76;96993.53;5004432;28;19929;-81
2021/12/12 05:33:20;;;;;;;;;;;;;;;1.00;86.72;97011.50;5005299;28;19994;-81
2021/12/12 05:35:46;;;;;;;;;;;;;;;0.98;87.36;97008.25;5002857;28;19921;-81
2021/12/12 05:38:14;;;;;;;;;;;;;;;0.98;87.02;97004.84;5003725;28;20011;-81
2021/12/12 05:40:43;;;;;;;;;;;;;;;1.08;86.16;97015.06;5008364;28;19910;-81
2021/12/12 05:43:11;;;;;;;;;;;;;;;1.01;86.56;97017.47;5008763;28;20255;-81
2021/12/12 05:45:38;;;;;;;;;;;;;;;0.93;86.96;97007.09;5017793;28;19997;-80
2021/12/12 05:48:05;;;;;;;;;;;;;;;1.04;86.82;97009.41;5016064;28;19963;-81
2021/12/12 05:50:30;;;;;;;;;;;;;;;1.01;85.98;97009.72;5009551;28;19965;-81
2021/12/12 05:52:56;;;;;;;;;;;;;;;1.05;84.74;97017.03;5008319;28;19996;-81
2021/12/12 05:55:23;;;;;;;;;;;;;;;1.01;85.48;97009.72;4990227;28;19926;-81
2021/12/12 05:57:58;;;;;;;;;;;;;;;0.95;85.98;97015.53;5008101;28;19921;-80
2021/12/12 06:00:25;;;;;;;;;;;;;;;1.00;86.26;97010.69;5016614;28;19910;-79
2021/12/12 06:02:52;;;;;;;;;;;;;;;1.01;85.57;97004.53;4989432;28;19933;-80
2021/12/12 06:05:20;;;;;;;;;;;;;;;0.84;85.94;97008.84;5006101;28;19949;-80
2021/12/12 06:07:46;;;;;;;;;;;;;;;0.68;86.54;97006.97;4989747;28;19925;-81
2021/12/12 06:10:15;;;;;;;;;;;;;;;0.54;86.88;97015.31;4989284;28;20059;-82
2021/12/12 06:12:41;;;;;;;;;;;;;;;0.43;87.41;97016.41;5007049;28;19921;-80
2021/12/12 06:15:08;;;;;;;;;;;;;;;0.34;88.47;97022.47;4988939;28;20342;-80
2021/12/12 06:17:34;;;;;;;;;;;;;;;0.30;88.74;97023.72;5007385;28;19979;-81
2021/12/12 06:20:03;;;;;;;;;;;;;;;0.21;89.21;97007.31;4990862;28;19937;-81
2021/12/12 06:22:28;;;;;;;;;;;;;;;0.10;90.02;97009.34;4988676;28;19968;-81
2021/12/12 06:24:56;;;;;;;;;;;;;;;0.06;89.82;97026.16;5021899;23;19921;-79
2021/12/12 06:27:22;;;;;;;;;;;;;;;0.03;90.60;97018.69;5017645;28;19936;-79
2021/12/12 06:29:51;;;;;;;;;;;;;;;-0.02;91.12;97021.72;5017551;28;19921;-80
2021/12/12 06:32:16;;;;;;;;;;;;;;;-0.05;91.03;97027.19;5017741;28;19928;-79
2021/12/12 06:34:42;;;;;;;;;;;;;;;-0.03;91.06;97030.44;5017563;28;19909;-80
2021/12/12 06:37:09;;;;;;;;;;;;;;;0.10;90.23;97036.03;5017013;28;19953;-80
2021/12/12 06:39:35;;;;;;;;;;;;;;;0.16;90.01;97024.25;5014942;28;19941;-80
2021/12/12 06:42:01;;;;;;;;;;;;;;;0.18;90.22;97043.88;5017029;28;19921;-79
2021/12/12 06:44:29;;;;;;;;;;;;;;;0.19;90.04;97040.31;4984430;28;19952;-78
2021/12/12 06:46:55;;;;;;;;;;;;;;;0.26;90.08;97030.97;4981335;28;20358;-79
2021/12/12 06:49:23;;;;;;;;;;;;;;;0.31;89.98;97029.72;4999563;28;19929;-80
2021/12/12 06:51:50;;;;;;;;;;;;;;;0.31;89.83;97042.66;4998675;28;19966;-80
2021/12/12 06:54:17;;;;;;;;;;;;;;;0.39;89.85;97038.38;5000331;28;20203;-80
2021/12/12 06:56:43;;;;;;;;;;;;;;;0.30;89.90;97038.44;5000003;28;20243;-78
2021/12/12 06:59:09;;;;;;;;;;;;;;;0.23;90.10;97039.06;5001699;28;19922;-79
2021/12/12 07:01:36;;;;;;;;;;;;;;;0.24;90.04;97042.44;4997580;28;20044;-79
2021/12/12 07:04:05;;;;;;;;;;;;;;;0.10;90.74;97051.56;4997281;28;19922;-79
2021/12/12 07:06:31;;;;;;;;;;;;;;;0.07;91.05;97051.88;4979781;28;19972;-79
2021/12/12 07:08:57;;;;;;;;;;;;;;;0.03;90.89;97055.69;4997964;28;20013;-79
2021/12/12 07:11:25;;;;;;;;;;;;;;;0.06;91.65;97045.06;4982093;28;20072;-79
2021/12/12 07:13:51;;;;;;;;;;;;;;;0.08;91.14;97066.41;5016791;28;19917;-78
2021/12/12 07:16:17;;;;;;;;;;;;;;;0.14;91.27;97063.22;4997965;28;19925;-79
2021/12/12 07:18:43;;;;;;;;;;;;;;;0.18;91.59;97067.16;4999090;28;20382;-79
2021/12/12 07:21:11;;;;;;;;;;;;;;;0.26;91.08;97074.16;4998339;28;20386;-79
2021/12/12 07:23:38;;;;;;;;;;;;;;;0.41;90.51;97070.06;4997565;28;19968;-79
2021/12/12 07:26:05;;;;;;;;;;;;;;;0.38;90.77;97082.50;4997993;28;19932;-80
2021/12/12 07:28:32;;;;;;;;;;;;;;;0.31;91.25;97074.50;5007846;28;19922;-79
2021/12/12 07:30:59;;;;;;;;;;;;;;;0.32;90.95;97072.75;4999440;28;19992;-79
2021/12/12 07:33:27;;;;;;;;;;;;;;;0.42;91.00;97078.63;5000010;28;20016;-79
2021/12/12 07:35:59;;;;;;;;;;;;;;;0.54;90.58;97082.63;4980692;28;19940;-80
2021/12/12 07:38:28;;;;;;;;;;;;;;;0.54;90.39;97085.22;4998134;28;20382;-79
2021/12/12 07:40:54;;;;;;;;;;;;;;;0.46;90.91;97091.13;4997147;28;20275;-79
2021/12/12 07:43:22;;;;;;;;;;;;;;;0.53;90.83;97088.75;4998438;28;19928;-79
2021/12/12 07:45:51;;;;;;;;;;;;;;;0.57;91.03;97090.09;4997047;28;19922;-79
2021/12/12 07:48:17;;;;;;;;;;;;;;;0.56;90.93;97104.00;4997938;28;19953;-79
2021/12/12 07:50:44;;;;;;;;;;;;;;;0.63;90.70;97094.66;4996248;28;19925;-79
2021/12/12 07:53:10;;;;;;;;;;;;;;;0.74;90.26;97096.19;4997394;28;19922;-79
2021/12/12 07:55:36;;;;;;;;;;;;;;;0.55;90.93;97091.22;4981109;28;19946;-79
2021/12/12 07:58:04;;;;;;;;;;;;;;;0.58;90.90;97096.88;5001420;28;20414;-78
2021/12/12 08:00:30;;;;;;;;;;;;;;;0.53;91.04;97089.56;4982671;28;19921;-79
2021/12/12 08:02:57;;;;;;;;;;;;;;;0.50;91.09;97084.69;5001126;28;20016;-79
2021/12/12 08:05:28;;;;;;;;;;;;;;;0.44;91.63;97085.31;5000579;28;19922;-79
2021/12/12 08:07:54;;;;;;;;;;;;;;;0.40;92.02;97093.53;4982730;28;19921;-79
2021/12/12 08:10:19;;;;;;;;;;;;;;;0.41;92.39;97089.97;4982224;28;19925;-79
2021/12/12 08:12:45;;;;;;;;;;;;;;;0.39;92.32;97089.31;5008780;28;19933;-82
2021/12/12 08:15:11;;;;;;;;;;;;;;;0.37;92.55;97083.47;5016022;28;19910;-80
2021/12/12 08:17:38;;;;;;;;;;;;;;;0.35;92.18;97087.97;4993383;28;20029;-79
2021/12/12 08:20:06;;;;;;;;;;;;;;;0.44;92.03;97087.91;5002391;28;19932;-80
2021/12/12 08:22:33;;;;;;;;;;;;;;;0.46;92.16;97090.31;4999277;28;19921;-80
2021/12/12 08:25:02;;;;;;;;;;;;;;;0.54;92.17;97090.41;4984036;28;20449;-79
2021/12/12 08:27:27;;;;;;;;;;;;;;;0.56;91.74;97096.22;4984618;28;19926;-79
2021/12/12 08:29:54;;;;;;;;;;;;;;;0.49;92.52;97090.03;5001139;28;19988;-79
2021/12/12 08:32:19;;;;;;;;;;;;;;;0.55;92.30;97086.84;5002339;28;19960;-79
2021/12/12 08:34:45;;;;;;;;;;;;;;;0.53;92.56;97088.75;5001520;28;19922;-78
2021/12/12 08:37:12;;;;;;;;;;;;;;;0.50;92.54;97096.84;5002572;28;19968;-79
2021/12/12 08:39:40;;;;;;;;;;;;;;;0.61;92.54;97091.41;4983880;28;19926;-79
2021/12/12 08:42:06;;;;;;;;;;;;;;;0.67;92.61;97092.56;5001761;28;19929;-78
2021/12/12 08:44:33;;;;;;;;;;;;;;;0.70;92.27;97087.91;5002689;28;19926;-79
2021/12/12 08:46:59;;;;;;;;;;;;;;;0.75;91.94;97090.88;5011379;28;19976;-80
2021/12/12 08:49:27;;;;;;;;;;;;;;;0.78;91.11;97097.50;5014162;28;19922;-79
2021/12/12 08:51:55;;;;;;;;;;;;;;;0.89;91.37;97099.03;4985474;28;19922;-79
2021/12/12 08:54:31;;;;;;;;;;;;;;;0.93;90.84;97097.75;5000490;28;19948;-78
2021/12/12 08:57:03;;;;;;;;;;;;;;;0.83;90.24;97094.47;4981829;28;19922;-78
2021/12/12 08:59:28;;;;;;;;;;;;;;;0.83;90.78;97099.66;5002993;28;19989;-80
2021/12/12 09:01:57;;;;;;;;;;;;;;;0.89;90.49;97091.25;4984642;28;19925;-78
2021/12/12 09:04:23;;;;;;;;;;;;;;;0.83;90.55;97094.47;5001199;28;19976;-79
2021/12/12 09:06:53;;;;;;;;;;;;;;;1.03;90.60;97090.69;4983974;28;19989;-79
2021/12/12 09:09:22;;;;;;;;;;;;;;;0.99;90.39;97089.38;5003684;28;19932;-79
2021/12/12 09:11:52;;;;;;;;;;;;;;;1.01;90.47;97101.19;5007484;28;19926;-80
2021/12/12 09:14:19;;;;;;;;;;;;;;;1.09;90.24;97100.44;5017760;28;19929;-80
2021/12/12 09:16:47;;;;;;;;;;;;;;;1.08;89.72;97104.00;5002291;28;19910;-80
2021/12/12 09:19:14;;;;;;;;;;;;;;;1.20;89.20;97107.94;5002118;28;19985;-80
2021/12/12 09:21:48;;;;;;;;;;;;;;;1.19;89.93;97098.56;5007752;28;20312;-79
2021/12/12 09:24:16;;;;;;;;;;;;;;;1.17;89.15;97105.66;4989664;28;19921;-79
2021/12/12 09:26:46;;;;;;;;;;;;;;;1.20;88.45;97100.16;5005728;28;19922;-80
2021/12/12 09:29:16;;;;;;;;;;;;;;;1.29;87.86;97107.03;5004500;28;19922;-79
2021/12/12 09:31:45;;;;;;;;;;;;;;;1.34;87.93;97113.50;5003395;28;20001;-79
2021/12/12 09:34:15;;;;;;;;;;;;;;;1.50;87.54;97103.19;5002506;28;19922;-79
2021/12/12 09:36:42;;;;;;;;;;;;;;;1.55;86.88;97100.94;4984928;28;19957;-79
2021/12/12 09:39:09;;;;;;;;;;;;;;;1.51;86.35;97094.47;5003248;28;19925;-81
2021/12/12 09:41:59;;;;;;;;;;;;;;;1.71;86.25;97095.81;5004351;28;19933;-79
2021/12/12 09:44:36;;;;;;;;;;;;;;;1.98;85.38;97106.88;4986203;28;19921;-80
2021/12/12 09:47:57;;;;;;;;;;;;;;;2.12;84.46;97103.69;4985451;28;19922;-80
2021/12/12 09:53:08;;;;;;;;;;;;;;;1.78;84.45;97094.22;5002870;28;20107;-80
2021/12/12 09:55:37;;;;;;;;;;;;;;;1.66;84.89;97084.28;5001275;28;20293;-78
2021/12/12 09:58:08;;;;;;;;;;;;;;;1.55;85.20;97090.56;5004499;28;19922;-80
2021/12/12 10:00:40;;;;;;;;;;;;;;;1.56;85.41;97092.19;5003208;28;20301;-81
2021/12/12 10:03:10;;;;;;;;;;;;;;;1.62;85.42;97083.81;5001372;28;19921;-78
2021/12/12 10:05:43;;;;;;;;;;;;;;;1.88;84.89;97075.91;5003749;28;19921;-78
2021/12/12 10:08:13;;;;;;;;;;;;;;;2.10;84.02;97071.91;5004263;28;19929;-80
2021/12/12 10:10:48;;;;;;;;;;;;;;;2.17;84.20;97075.47;5004155;28;19922;-79
2021/12/12 10:13:21;;;;;;;;;;;;;;;2.33;83.51;97080.66;5008922;28;19909;-79
2021/12/12 10:15:49;;;;;;;;;;;;;;;2.45;83.68;97068.16;5016729;28;19932;-80
2021/12/12 10:18:18;;;;;;;;;;;;;;;2.41;83.25;97076.44;5008526;28;20309;-79
2021/12/12 10:20:49;;;;;;;;;;;;;;;2.59;83.17;97075.28;5003925;28;19961;-79
2021/12/12 10:23:22;;;;;;;;;;;;;;;2.74;82.88;97080.59;4986178;28;20067;-79
2021/12/12 10:25:53;;;;;;;;;;;;;;;2.57;82.21;97071.22;5000553;28;19921;-79
2021/12/12 10:28:22;;;;;;;;;;;;;;;2.54;81.56;97084.53;5001683;28;19976;-81
2021/12/12 10:30:50;;;;;;;;;;;;;;;2.66;81.98;97074.63;5001620;28;19925;-79
2021/12/12 10:33:18;;;;;;;;;;;;;;;2.61;81.94;97070.72;5001657;28;20333;-80
2021/12/12 10:35:48;;;;;;;;;;;;;;;2.57;82.01;97074.63;4984720;28;20009;-80
2021/12/12 10:38:19;;;;;;;;;;;;;;;2.62;81.47;97079.34;5001535;28;19933;-79
2021/12/12 10:40:47;;;;;;;;;;;;;;;2.61;81.72;97067.31;5001777;28;19929;-80
2021/12/12 10:43:22;;;;;;;;;;;;;;;2.70;81.49;97074.13;5001973;28;19922;-80
2021/12/12 10:45:52;;;;;;;;;;;;;;;2.48;81.29;97067.84;5002758;28;19925;-79
2021/12/12 10:48:19;;;;;;;;;;;;;;;2.50;82.33;97065.06;4989922;28;19921;-82
2021/12/12 10:50:48;;;;;;;;;;;;;;;2.50;82.11;97070.25;5017763;28;19913;-79
2021/12/12 10:53:19;;;;;;;;;;;;;;;2.66;81.12;97066.84;5016251;28;19980;-79
2021/12/12 10:55:47;;;;;;;;;;;;;;;2.54;81.47;97063.78;5015970;28;19909;-80
2021/12/12 10:58:19;;;;;;;;;;;;;;;2.57;81.69;97066.84;4999446;28;19989;-80
2021/12/12 11:00:46;;;;;;;;;;;;;;;2.74;80.30;97064.22;5017138;28;19945;-81
2021/12/12 11:03:16;;;;;;;;;;;;;;;2.84;80.40;97065.66;5014528;28;19921;-79
2021/12/12 11:05:46;;;;;;;;;;;;;;;2.93;80.37;97070.84;4988266;28;20053;-80
2021/12/12 11:08:15;;;;;;;;;;;;;;;2.69;80.20;97069.09;5015062;28;20057;-79
2021/12/12 11:10:42;;;;;;;;;;;;;;;2.93;80.04;97065.66;5003258;28;19921;-79
2021/12/12 11:13:09;;;;;;;;;;;;;;;3.05;80.04;97069.50;4983151;28;20335;-79
2021/12/12 11:15:36;;;;;;;;;;;;;;;3.23;78.97;97077.91;5000309;28;19922;-77
2021/12/12 11:18:04;;;;;;;;;;;;;;;3.25;78.97;97070.75;4999733;28;19922;-79
2021/12/12 11:20:34;;;;;;;;;;;;;;;3.04;78.99;97070.47;5000197;28;19945;-79
2021/12/12 11:23:03;;;;;;;;;;;;;;;2.92;80.22;97064.03;4999442;28;19928;-80
2021/12/12 11:25:36;;;;;;;;;;;;;;;2.82;79.95;97067.63;4999569;28;19993;-79
2021/12/12 11:28:04;;;;;;;;;;;;;;;3.07;79.63;97075.38;4998318;28;20386;-79
2021/12/12 11:30:34;;;;;;;;;;;;;;;3.04;79.34;97070.47;4997729;28;20472;-79
2021/12/12 11:33:00;;;;;;;;;;;;;;;2.83;79.70;97066.63;4999213;28;19922;-78
2021/12/12 11:35:28;;;;;;;;;;;;;;;2.92;80.12;97064.84;4980857;28;20066;-78
2021/12/12 11:37:58;;;;;;;;;;;;;;;2.93;80.47;97061.25;4997628;28;19933;-78
2021/12/12 11:40:28;;;;;;;;;;;;;;;2.97;80.16;97059.16;4998380;28;19922;-79
2021/12/12 11:42:58;;;;;;;;;;;;;;;2.97;79.66;97048.75;4998016;28;19921;-80
2021/12/12 11:45:25;;;;;;;;;;;;;;;2.96;79.89;97065.28;4997413;28;20012;-79
2021/12/12 11:48:10;;;;;;;;;;;;;;;2.78;80.01;97048.13;4997474;28;19921;-79
2021/12/12 11:50:41;;;;;;;;;;;;;;;2.81;80.45;97054.78;4997703;28;19929;-79
2021/12/12 11:53:15;;;;;;;;;;;;;;;2.85;80.73;97048.25;4997356;28;20378;-78
2021/12/12 11:55:42;;;;;;;;;;;;;;;3.16;80.05;97054.34;4997998;28;19945;-79
2021/12/12 11:58:14;;;;;;;;;;;;;;;3.51;79.46;97051.47;4986104;28;19928;-79
2021/12/12 12:00:41;;;;;;;;;;;;;;;3.73;78.15;97053.28;4996808;28;19929;-79
2021/12/12 12:03:13;;;;;;;;;;;;;;;3.50;78.55;97042.84;4979438;28;19925;-79
2021/12/12 12:05:44;;;;;;;;;;;;;;;3.47;78.39;97031.97;4997579;28;20033;-78
2021/12/12 12:08:18;;;;;;;;;;;;;;;3.37;79.27;97038.19;4998051;28;19926;-80
2021/12/12 12:10:50;;;;;;;;;;;;;;;3.40;78.81;97019.66;5000157;28;19925;-80
2021/12/12 12:13:33;;;;;;;;;;;;;;;3.40;79.23;97027.44;5003744;28;19929;-79
2021/12/12 12:16:01;;;;;;;;;;;;;;;3.35;79.45;97027.16;5002688;28;19940;-80
2021/12/12 12:18:29;;;;;;;;;;;;;;;3.39;79.49;97028.44;5009510;28;20020;-79
2021/12/12 12:20:59;;;;;;;;;;;;;;;3.60;78.75;97029.59;4982496;28;19922;-79
2021/12/12 12:23:42;;;;;;;;;;;;;;;3.42;79.14;97015.06;4981017;28;20092;-80
2021/12/12 12:28:57;;;;;;;;;;;;;;;3.83;77.89;97019.22;4998718;28;19941;-80
2021/12/12 12:31:43;;;;;;;;;;;;;;;3.74;77.82;97022.88;4980504;28;19922;-79
2021/12/12 12:34:37;;;;;;;;;;;;;;;3.58;78.19;97023.78;4998201;28;19921;-79
2021/12/12 12:37:21;;;;;;;;;;;;;;;3.65;77.95;97025.50;4999032;28;19952;-79
2021/12/12 12:40:05;;;;;;;;;;;;;;;3.52;78.43;97024.47;4999570;28;19918;-77
2021/12/12 12:42:54;;;;;;;;;;;;;;;3.46;78.78;97027.75;4999461;28;19913;-80
2021/12/12 12:45:38;;;;;;;;;;;;;;;3.50;78.89;97031.59;4981802;28;20298;-79
2021/12/12 12:48:45;;;;;;;;;;;;;;;3.53;78.58;97023.47;4997932;28;20031;-79
2021/12/12 12:51:15;;;;;;;;;;;;;;;3.56;78.80;97013.53;4998662;28;19922;-80
2021/12/12 12:53:58;;;;;;;;;;;;;;;3.67;78.32;97012.34;4999367;28;19922;-79
2021/12/12 12:56:57;;;;;;;;;;;;;;;3.48;79.17;97012.78;4996734;28;19929;-78
2021/12/12 12:59:38;;;;;;;;;;;;;;;3.68;79.21;97003.53;4979481;28;19980;-79
2021/12/12 13:02:11;;;;;;;;;;;;;;;3.50;79.26;96998.63;4980247;28;20452;-78
2021/12/12 13:04:47;;;;;;;;;;;;;;;3.51;79.36;97007.25;4997929;28;19937;-78
2021/12/12 13:07:17;;;;;;;;;;;;;;;3.43;79.46;97001.06;4997653;28;19922;-79
2021/12/12 13:09:50;;;;;;;;;;;;;;;3.54;79.38;96996.47;4998918;28;20016;-78
2021/12/12 13:12:27;;;;;;;;;;;;;;;3.55;79.13;96996.31;4997162;28;19979;-79
2021/12/12 13:14:57;;;;;;;;;;;;;;;3.81;78.52;96976.94;4996908;28;19925;-80
2021/12/12 13:17:29;;;;;;;;;;;;;;;3.50;79.57;96980.41;4997197;28;19953;-79
2021/12/12 13:20:04;;;;;;;;;;;;;;;3.34;80.18;96975.31;4979882;28;19953;-79
2021/12/12 13:22:35;;;;;;;;;;;;;;;3.36;80.37;96979.34;4980347;28;19976;-80
2021/12/12 13:25:06;;;;;;;;;;;;;;;3.67;80.06;96965.50;4996972;28;19991;-79
2021/12/12 13:27:59;;;;;;;;;;;;;;;3.42;80.23;96968.25;4997439;28;19930;-79